Time;durP1;ratioP1;P1;durP2;ratioP2;P2;SDS_P1;SDS_P2;PMS_P1;PMS_P2;Temp;Humidity;BMP_temperature;BMP_pressure;BME280_temperature;BME280_humidity;BME280_pressure;Samples;Min_cycle;Max_cycle;Signal;HPM_P1;HPM_P2
2023/07/27 00:00:42;;;;;;;39.90;36.55;;;12.10;99.90;;;;;;5032517;28;20112;-81
2023/07/27 00:03:07;;;;;;;28.15;25.48;;;12.10;99.90;;;;;;5015828;28;20059;-81
2023/07/27 00:05:33;;;;;;;23.10;21.17;;;12.10;99.90;;;;;;5032087;28;20390;-81
2023/07/27 00:07:58;;;;;;;20.55;18.65;;;12.10;99.90;;;;;;5032340;28;20042;-81
2023/07/27 00:10:24;;;;;;;30.40;27.80;;;12.20;99.90;;;;;;5032672;28;20044;-81
2023/07/27 00:12:51;;;;;;;20.20;17.23;;;12.60;99.90;;;;;;5032459;28;20068;-81
2023/07/27 00:15:17;;;;;;;24.88;22.25;;;12.20;99.90;;;;;;5033452;28;20084;-81
2023/07/27 00:17:42;;;;;;;20.67;18.40;;;12.20;99.90;;;;;;5031909;28;20049;-81
2023/07/27 00:20:08;;;;;;;20.48;18.38;;;12.20;99.90;;;;;;5015089;28;20496;-81
2023/07/27 00:22:34;;;;;;;21.58;19.55;;;12.20;99.90;;;;;;5032251;28;20037;-81
2023/07/27 00:24:59;;;;;;;31.23;28.65;;;12.20;99.90;;;;;;5033324;28;20033;-81
2023/07/27 00:27:25;;;;;;;22.65;20.65;;;12.30;99.90;;;;;;5032024;28;20038;-81
2023/07/27 00:29:51;;;;;;;36.30;33.47;;;12.20;99.90;;;;;;5032058;28;20045;-81
2023/07/27 00:32:16;;;;;;;32.60;30.10;;;12.20;99.90;;;;;;5031823;28;20049;-81
2023/07/27 00:34:42;;;;;;;32.78;29.95;;;12.20;99.90;;;;;;5031191;28;20050;-81
2023/07/27 00:37:08;;;;;;;51.90;48.13;;;12.20;99.90;;;;;;5015381;28;20042;-82
2023/07/27 00:39:34;;;;;;;32.00;29.35;;;12.20;99.90;;;;;;5031597;28;20124;-81
2023/07/27 00:41:59;;;;;;;21.20;19.30;;;12.20;99.90;;;;;;5015093;28;20120;-81
2023/07/27 00:44:25;;;;;;;28.23;25.48;;;12.30;99.90;;;;;;5032831;28;20108;-81
2023/07/27 00:46:52;;;;;;;26.55;24.35;;;12.30;99.90;;;;;;5031474;28;20539;-81
2023/07/27 00:49:19;;;;;;;18.45;16.65;;;12.30;99.90;;;;;;5032522;28;20064;-81
2023/07/27 00:51:45;;;;;;;31.52;28.75;;;12.30;99.90;;;;;;5032980;28;20041;-81
2023/07/27 00:54:13;;;;;;;31.42;28.88;;;12.30;99.90;;;;;;5015054;28;20073;-81
2023/07/27 00:56:39;;;;;;;22.20;20.13;;;12.30;99.90;;;;;;5031572;28;20052;-81
2023/07/27 00:59:06;;;;;;;17.83;16.15;;;12.30;99.90;;;;;;5014754;28;20128;-81
2023/07/27 01:01:31;;;;;;;24.33;22.15;;;12.40;99.90;;;;;;5031326;28;20116;-82
2023/07/27 01:03:58;;;;;;;22.65;17.60;;;12.40;99.90;;;;;;5031019;28;20523;-81
2023/07/27 01:06:24;;;;;;;17.85;16.08;;;12.40;99.90;;;;;;5032651;28;20034;-81
2023/07/27 01:08:51;;;;;;;19.63;17.83;;;12.40;99.90;;;;;;5031304;28;20044;-81
2023/07/27 01:11:34;;;;;;;17.35;15.55;;;12.40;99.90;;;;;;5031137;28;20045;-81
2023/07/27 01:14:18;;;;;;;19.10;17.42;;;12.50;99.90;;;;;;5032353;28;20112;-81
2023/07/27 01:16:51;;;;;;;21.40;19.60;;;12.50;99.90;;;;;;5032356;28;20045;-81
2023/07/27 01:19:32;;;;;;;22.52;20.27;;;12.50;99.90;;;;;;5013757;28;20053;-81
2023/07/27 01:22:20;;;;;;;22.77;19.67;;;12.50;99.90;;;;;;5030477;28;20049;-81
2023/07/27 01:25:15;;;;;;;20.23;18.52;;;12.50;99.90;;;;;;5030794;28;20128;-81
2023/07/27 01:28:08;;;;;;;19.02;17.05;;;12.50;99.90;;;;;;5030834;28;20455;-82
2023/07/27 01:31:07;;;;;;;20.90;19.00;;;12.50;99.90;;;;;;5030738;28;20508;-82
2023/07/27 01:33:39;;;;;;;21.42;19.48;;;12.50;99.90;;;;;;5023646;28;20125;-81
2023/07/27 01:36:21;;;;;;;23.00;20.77;;;12.50;99.90;;;;;;5030754;28;20503;-81
2023/07/27 01:38:48;;;;;;;20.85;18.95;;;12.50;99.90;;;;;;5014158;28;20045;-81
2023/07/27 01:41:15;;;;;;;17.45;15.68;;;12.50;99.90;;;;;;5030687;28;20080;-82
2023/07/27 01:43:43;;;;;;;20.15;18.33;;;12.50;99.90;;;;;;5030574;28;20095;-82
2023/07/27 01:46:11;;;;;;;20.13;17.98;;;12.80;99.90;;;;;;5030503;28;20049;-82
2023/07/27 01:48:38;;;;;;;20.48;18.33;;;12.80;99.90;;;;;;5029951;28;20052;-81
2023/07/27 01:51:05;;;;;;;16.98;15.27;;;12.50;99.90;;;;;;5014141;28;20041;-82
2023/07/27 01:53:32;;;;;;;17.67;15.98;;;12.50;99.90;;;;;;5030299;28;20045;-82
2023/07/27 01:55:59;;;;;;;18.38;16.88;;;12.60;99.90;;;;;;5014267;28;20077;-81
2023/07/27 01:58:26;;;;;;;19.50;17.67;;;12.60;99.90;;;;;;5030293;28;20045;-81
2023/07/27 02:00:55;;;;;;;19.25;17.02;;;12.60;99.90;;;;;;5013952;28;20083;-81
2023/07/27 02:03:21;;;;;;;18.40;16.48;;;12.60;99.90;;;;;;5030130;28;20404;-82
2023/07/27 02:05:46;;;;;;;16.20;14.50;;;12.50;99.90;;;;;;5031473;28;20046;-81
2023/07/27 02:08:12;;;;;;;21.77;19.40;;;12.60;99.90;;;;;;5030520;28;20052;-81
2023/07/27 02:10:40;;;;;;;21.10;19.17;;;12.60;99.90;;;;;;5030277;28;20042;-81
2023/07/27 02:13:29;;;;;;;17.25;14.80;;;12.60;99.90;;;;;;5030293;28;20103;-81
2023/07/27 02:16:40;;;;;;;19.30;17.60;;;12.60;99.90;;;;;;5029814;28;20069;-81
2023/07/27 02:19:07;;;;;;;19.48;17.42;;;12.60;99.90;;;;;;5014927;28;20099;-81
2023/07/27 02:21:35;;;;;;;19.60;17.90;;;12.60;99.90;;;;;;5030435;28;20495;-81
2023/07/27 02:24:01;;;;;;;17.75;16.10;;;12.60;99.90;;;;;;5030212;28;20114;-82
2023/07/27 02:26:27;;;;;;;19.77;17.92;;;12.60;99.90;;;;;;5030139;28;20033;-81
2023/07/27 02:28:53;;;;;;;19.75;17.85;;;12.70;99.90;;;;;;5030075;28;20598;-82
2023/07/27 02:31:19;;;;;;;19.20;17.45;;;12.70;99.90;;;;;;5031032;28;20121;-81
2023/07/27 02:33:45;;;;;;;16.27;14.70;;;12.70;99.90;;;;;;5033090;28;20072;-82
2023/07/27 02:36:10;;;;;;;20.08;18.15;;;12.70;99.90;;;;;;5017853;28;20047;-81
2023/07/27 02:38:37;;;;;;;25.98;19.52;;;12.70;99.90;;;;;;5034046;28;20042;-81
2023/07/27 02:41:02;;;;;;;19.70;18.02;;;12.90;99.90;;;;;;5033815;28;20496;-81
2023/07/27 02:43:28;;;;;;;17.73;16.08;;;12.70;99.90;;;;;;5033719;28;20068;-81
2023/07/27 02:46:00;;;;;;;19.95;18.35;;;12.80;99.90;;;;;;5016839;28;20100;-82
2023/07/27 02:48:26;;;;;;;15.05;13.45;;;12.80;99.90;;;;;;5033962;28;20450;-82
2023/07/27 02:50:52;;;;;;;18.88;16.88;;;12.80;99.90;;;;;;5033716;28;20052;-82
2023/07/27 02:53:18;;;;;;;19.23;17.40;;;12.90;99.90;;;;;;5033769;28;20041;-82
2023/07/27 02:55:55;;;;;;;19.08;14.55;;;13.20;99.90;;;;;;5017182;28;20048;-82
2023/07/27 02:58:21;;;;;;;16.35;14.65;;;13.00;99.90;;;;;;5017380;28;20400;-81
2023/07/27 03:00:54;;;;;;;16.42;14.77;;;13.00;99.90;;;;;;5032996;28;20033;-82
2023/07/27 03:03:21;;;;;;;18.58;16.95;;;13.10;99.90;;;;;;5033829;28;20381;-82
2023/07/27 03:05:47;;;;;;;13.20;11.68;;;13.10;99.90;;;;;;5033411;28;20044;-82
2023/07/27 03:08:12;;;;;;;14.57;12.80;;;13.20;99.90;;;;;;5034864;28;20495;-81
2023/07/27 03:10:39;;;;;;;16.52;14.77;;;13.20;99.90;;;;;;5034485;28;20128;-81
2023/07/27 03:13:05;;;;;;;15.23;13.73;;;13.20;99.90;;;;;;5016809;28;20152;-81
2023/07/27 03:15:30;;;;;;;15.90;14.07;;;13.20;99.90;;;;;;5034252;28;20045;-81
2023/07/27 03:17:56;;;;;;;16.73;15.02;;;13.30;99.90;;;;;;5032925;28;20041;-82
2023/07/27 03:20:22;;;;;;;16.80;15.27;;;13.50;99.90;;;;;;5034419;28;20053;-81
2023/07/27 03:22:48;;;;;;;15.70;14.18;;;13.30;99.90;;;;;;5033440;28;20087;-82
2023/07/27 03:25:14;;;;;;;12.52;11.30;;;13.40;99.90;;;;;;5033295;28;20052;-82
2023/07/27 03:27:39;;;;;;;14.10;11.98;;;13.40;99.90;;;;;;5033137;28;20124;-82
2023/07/27 03:30:06;;;;;;;13.02;11.63;;;13.50;99.90;;;;;;5034012;28;20120;-81
2023/07/27 03:32:31;;;;;;;16.85;15.35;;;13.50;99.90;;;;;;5016760;28;20516;-81
2023/07/27 03:34:57;;;;;;;13.70;12.07;;;13.50;99.90;;;;;;5016427;28;20041;-82
2023/07/27 03:37:23;;;;;;;14.40;12.90;;;13.50;99.90;;;;;;5016440;28;20484;-81
2023/07/27 03:39:48;;;;;;;20.25;18.15;;;13.50;99.90;;;;;;5032698;28;20045;-82
2023/07/27 03:42:14;;;;;;;20.92;18.95;;;13.50;99.90;;;;;;5034189;28;20065;-81
2023/07/27 03:44:39;;;;;;;19.33;17.63;;;13.70;99.90;;;;;;5015371;28;20459;-82
2023/07/27 03:47:05;;;;;;;15.48;14.00;;;13.50;99.90;;;;;;5032694;28;20164;-81
2023/07/27 03:49:31;;;;;;;19.98;18.27;;;13.50;99.90;;;;;;5016210;28;20068;-81
2023/07/27 03:51:56;;;;;;;16.40;14.75;;;13.50;99.90;;;;;;5033900;28;20072;-82
2023/07/27 03:54:22;;;;;;;17.63;15.93;;;13.70;99.90;;;;;;5032421;28;20051;-82
2023/07/27 03:56:48;;;;;;;16.38;14.70;;;13.60;99.90;;;;;;5032503;28;20041;-81
2023/07/27 03:59:13;;;;;;;15.52;14.02;;;13.50;99.90;;;;;;5033113;28;20048;-82
2023/07/27 04:01:39;;;;;;;17.45;15.27;;;13.50;99.90;;;;;;5015859;28;20104;-82
2023/07/27 04:04:05;;;;;;;18.73;14.93;;;13.60;99.90;;;;;;5033714;28;20095;-81
2023/07/27 04:06:30;;;;;;;17.50;15.55;;;13.50;99.90;;;;;;5032464;28;20508;-82
2023/07/27 04:08:56;;;;;;;19.42;14.10;;;13.60;99.90;;;;;;5032159;28;20443;-82
2023/07/27 04:11:22;;;;;;;18.02;16.15;;;13.50;99.90;;;;;;5032187;28;20052;-82
2023/07/27 04:13:47;;;;;;;19.02;17.30;;;13.60;99.90;;;;;;5031716;28;20530;-82
2023/07/27 04:16:13;;;;;;;17.60;15.77;;;13.50;99.90;;;;;;5032278;28;20041;-82
2023/07/27 04:18:38;;;;;;;20.85;18.75;;;13.50;99.90;;;;;;5015400;28;20111;-82
2023/07/27 04:21:04;;;;;;;19.15;15.32;;;13.60;99.90;;;;;;5033316;28;20041;-82
2023/07/27 04:23:30;;;;;;;19.80;17.88;;;13.80;99.90;;;;;;5032072;28;20069;-82
2023/07/27 04:25:55;;;;;;;25.50;22.40;;;13.60;99.90;;;;;;5031878;28;20036;-81
2023/07/27 04:28:21;;;;;;;19.77;17.88;;;13.60;99.90;;;;;;5032930;28;20458;-82
2023/07/27 04:30:47;;;;;;;18.20;16.35;;;13.50;99.90;;;;;;5032025;28;20045;-81
2023/07/27 04:33:12;;;;;;;25.90;23.75;;;13.70;99.90;;;;;;5033285;28;20134;-81
2023/07/27 04:35:38;;;;;;;22.00;19.88;;;13.60;99.90;;;;;;5033165;28;20099;-81
2023/07/27 04:38:04;;;;;;;22.25;20.02;;;13.60;99.90;;;;;;5031828;28;20430;-82
2023/07/27 04:40:29;;;;;;;30.08;27.38;;;14.10;99.90;;;;;;5015194;28;20527;-81
2023/07/27 04:42:55;;;;;;;26.70;23.55;;;13.60;99.90;;;;;;5031159;28;20041;-81
2023/07/27 04:45:20;;;;;;;26.42;23.67;;;13.70;99.90;;;;;;5015360;28;20369;-81
2023/07/27 04:47:46;;;;;;;26.13;23.83;;;13.60;99.90;;;;;;5015012;28;20045;-81
2023/07/27 04:50:12;;;;;;;26.77;24.00;;;13.70;99.90;;;;;;5031733;28;20456;-81
2023/07/27 04:52:37;;;;;;;23.15;20.73;;;13.70;99.90;;;;;;5031458;28;20075;-81
2023/07/27 04:55:03;;;;;;;21.33;19.42;;;13.70;99.90;;;;;;5030717;28;20423;-81
2023/07/27 04:57:29;;;;;;;23.45;21.27;;;13.70;99.90;;;;;;5032229;28;20045;-81
2023/07/27 04:59:55;;;;;;;21.85;19.58;;;13.80;99.90;;;;;;5014782;28;20484;-81
2023/07/27 05:02:20;;;;;;;22.52;20.08;;;13.80;99.90;;;;;;5015017;28;20396;-81
2023/07/27 05:04:46;;;;;;;23.85;21.50;;;13.70;99.90;;;;;;5031196;28;20476;-80
2023/07/27 05:07:11;;;;;;;21.85;19.60;;;13.80;99.90;;;;;;5031111;28;20077;-80
2023/07/27 05:09:37;;;;;;;20.63;18.52;;;13.80;99.90;;;;;;5014837;28;20037;-80
2023/07/27 05:12:03;;;;;;;19.83;17.77;;;13.80;99.90;;;;;;5030763;28;20037;-80
2023/07/27 05:14:28;;;;;;;24.27;21.95;;;13.80;99.90;;;;;;5031335;28;20060;-81
2023/07/27 05:16:54;;;;;;;20.15;17.58;;;13.80;99.90;;;;;;5014506;28;20037;-81
2023/07/27 05:19:19;;;;;;;19.40;17.35;;;13.80;99.90;;;;;;5030663;28;20132;-80
2023/07/27 05:21:45;;;;;;;17.63;15.80;;;13.80;99.90;;;;;;5030958;28;20461;-80
2023/07/27 05:24:11;;;;;;;22.10;19.75;;;13.80;99.90;;;;;;5031011;28;20179;-80
2023/07/27 05:26:36;;;;;;;19.40;17.45;;;13.80;99.90;;;;;;5030373;28;20389;-80
2023/07/27 05:29:02;;;;;;;21.83;17.67;;;13.90;99.90;;;;;;5014323;28;20102;-80
2023/07/27 05:31:27;;;;;;;22.42;20.10;;;13.80;99.90;;;;;;5014450;28;20092;-80
2023/07/27 05:33:53;;;;;;;22.15;20.05;;;14.10;99.90;;;;;;5031866;28;20045;-80
2023/07/27 05:36:19;;;;;;;22.92;20.80;;;13.80;99.90;;;;;;5030495;28;20049;-81
2023/07/27 05:38:44;;;;;;;19.40;17.38;;;13.90;99.90;;;;;;5030877;28;20394;-80
2023/07/27 05:41:10;;;;;;;27.92;25.30;;;13.90;99.90;;;;;;5013561;28;20041;-80
2023/07/27 05:43:35;;;;;;;15.85;14.25;;;13.90;99.90;;;;;;5014347;28;20025;-80
2023/07/27 05:46:01;;;;;;;17.95;15.57;;;13.90;99.90;;;;;;5030647;28;20036;-81
2023/07/27 05:48:27;;;;;;;21.52;19.50;;;13.90;99.90;;;;;;5030505;28;20043;-80
2023/07/27 05:50:53;;;;;;;16.98;15.27;;;14.00;99.90;;;;;;5030377;28;20033;-80
2023/07/27 05:53:19;;;;;;;22.35;20.15;;;14.10;99.90;;;;;;5030423;28;20048;-80
2023/07/27 05:55:45;;;;;;;18.50;15.00;;;14.10;99.90;;;;;;5030582;28;20403;-80
2023/07/27 05:58:11;;;;;;;20.80;18.60;;;14.20;99.90;;;;;;5013844;28;20120;-80
2023/07/27 06:00:36;;;;;;;18.30;16.38;;;14.20;99.90;;;;;;5031659;28;20037;-80
2023/07/27 06:03:02;;;;;;;17.67;15.55;;;14.30;99.90;;;;;;5013786;28;20041;-80
2023/07/27 06:05:28;;;;;;;20.92;19.02;;;14.40;99.90;;;;;;5030413;28;20049;-80
2023/07/27 06:07:53;;;;;;;19.10;17.33;;;14.40;99.90;;;;;;5031071;28;20041;-81
2023/07/27 06:10:19;;;;;;;20.92;19.02;;;14.40;99.90;;;;;;5030460;28;20041;-80
2023/07/27 06:12:44;;;;;;;16.52;14.95;;;14.50;99.90;;;;;;5014004;28;20041;-80
2023/07/27 06:15:10;;;;;;;19.90;18.10;;;14.50;99.90;;;;;;5031368;28;20037;-80
2023/07/27 06:17:36;;;;;;;18.77;16.92;;;14.60;99.90;;;;;;5029953;28;20042;-80
2023/07/27 06:20:02;;;;;;;22.38;20.23;;;14.70;99.90;;;;;;5029876;28;20451;-80
2023/07/27 06:22:28;;;;;;;19.35;17.45;;;14.70;99.90;;;;;;5029972;28;20170;-80
2023/07/27 06:24:53;;;;;;;18.60;17.00;;;14.80;99.90;;;;;;5013568;28;20124;-81
2023/07/27 06:27:19;;;;;;;19.48;17.67;;;15.00;99.90;;;;;;5013583;28;20045;-81
2023/07/27 06:29:44;;;;;;;18.63;17.10;;;15.20;99.90;;;;;;5013621;28;20440;-81
2023/07/27 06:32:10;;;;;;;16.55;14.93;;;15.30;99.90;;;;;;5031293;28;20041;-80
2023/07/27 06:34:36;;;;;;;21.38;19.73;;;15.60;99.90;;;;;;5029805;28;20033;-80
2023/07/27 06:37:01;;;;;;;15.27;13.82;;;15.70;99.90;;;;;;5029457;28;20073;-80
2023/07/27 06:39:28;;;;;;;25.33;23.17;;;15.80;99.90;;;;;;5013420;28;20041;-80
2023/07/27 06:41:54;;;;;;;17.33;15.82;;;15.70;99.90;;;;;;5029780;28;20041;-81
2023/07/27 06:44:19;;;;;;;20.60;18.85;;;15.60;99.90;;;;;;5013546;28;20044;-81
2023/07/27 06:46:45;;;;;;;35.53;32.85;;;15.50;99.90;;;;;;5013594;28;20045;-81
2023/07/27 06:49:11;;;;;;;25.15;22.98;;;15.40;99.90;;;;;;5031007;28;20102;-81
2023/07/27 06:51:37;;;;;;;26.67;24.70;;;15.30;99.90;;;;;;5030920;28;20492;-80
2023/07/27 06:54:02;;;;;;;28.33;26.10;;;15.40;99.90;;;;;;5031407;28;20038;-81
2023/07/27 06:56:28;;;;;;;24.38;22.35;;;15.50;99.90;;;;;;5013281;28;20110;-80
2023/07/27 06:58:54;;;;;;;26.13;24.02;;;15.50;99.90;;;;;;5029848;28;20041;-81
2023/07/27 07:01:19;;;;;;;29.30;26.92;;;15.60;99.90;;;;;;5030803;28;20037;-80
2023/07/27 07:03:45;;;;;;;25.90;23.73;;;15.70;99.90;;;;;;5013133;28;20034;-81
2023/07/27 07:06:11;;;;;;;25.45;23.48;;;15.80;99.90;;;;;;5029157;28;20172;-81
2023/07/27 07:08:36;;;;;;;31.08;28.90;;;15.90;99.90;;;;;;5031242;28;20385;-81
2023/07/27 07:11:02;;;;;;;18.67;17.00;;;16.00;99.90;;;;;;5031097;28;20037;-81
2023/07/27 07:13:29;;;;;;;24.42;22.45;;;16.20;99.90;;;;;;5030131;28;20386;-81
2023/07/27 07:15:54;;;;;;;21.23;19.63;;;16.30;99.90;;;;;;5013493;28;20397;-81
2023/07/27 07:18:20;;;;;;;11.68;10.52;;;16.50;99.90;;;;;;5029820;28;20050;-81
2023/07/27 07:20:46;;;;;;;11.02;8.18;;;16.60;99.90;;;;;;5032600;28;20045;-81
2023/07/27 07:23:12;;;;;;;16.45;15.20;;;16.70;99.90;;;;;;5033341;28;20123;-81
2023/07/27 07:25:40;;;;;;;12.52;11.38;;;16.70;99.90;;;;;;5016840;28;20132;-81
2023/07/27 07:28:05;;;;;;;10.70;8.02;;;16.80;99.90;;;;;;5032983;28;20124;-81
2023/07/27 07:30:31;;;;;;;17.92;16.40;;;16.60;99.90;;;;;;5032954;28;20124;-80
2023/07/27 07:32:57;;;;;;;19.70;18.15;;;16.50;99.90;;;;;;5033063;28;20399;-81
2023/07/27 07:35:22;;;;;;;12.10;10.88;;;16.50;99.90;;;;;;5032728;28;20049;-80
2023/07/27 07:37:49;;;;;;;11.60;10.48;;;16.60;99.90;;;;;;5033304;28;20037;-80
2023/07/27 07:40:16;;;;;;;15.77;14.57;;;16.40;99.90;;;;;;5034169;28;20045;-80
2023/07/27 07:42:43;;;;;;;14.27;13.15;;;16.50;99.90;;;;;;5016356;28;20049;-81
2023/07/27 07:45:09;;;;;;;9.90;8.93;;;16.40;99.90;;;;;;5032838;28;20050;-81
2023/07/27 07:47:34;;;;;;;7.05;5.93;;;16.50;99.90;;;;;;5032999;28;20096;-81
2023/07/27 07:50:00;;;;;;;11.45;10.25;;;16.60;99.90;;;;;;5033692;28;20077;-81
2023/07/27 07:52:26;;;;;;;7.85;6.82;;;16.70;99.90;;;;;;5034215;28;20091;-81
2023/07/27 07:54:51;;;;;;;18.77;17.25;;;16.80;99.90;;;;;;5032477;28;20038;-81
2023/07/27 07:57:19;;;;;;;8.10;7.18;;;16.90;99.90;;;;;;5016280;28;20407;-81
2023/07/27 07:59:45;;;;;;;7.80;7.00;;;16.90;99.90;;;;;;5033752;28;20188;-81
2023/07/27 08:02:11;;;;;;;10.30;7.05;;;17.00;99.90;;;;;;5032587;28;20120;-81
2023/07/27 08:04:37;;;;;;;18.85;17.38;;;17.10;99.90;;;;;;5031957;28;20044;-81
2023/07/27 08:07:03;;;;;;;6.63;5.80;;;17.20;99.90;;;;;;5032493;28;20033;-81
2023/07/27 08:09:29;;;;;;;7.07;6.00;;;17.30;99.90;;;;;;5032247;28;20041;-81
2023/07/27 08:11:54;;;;;;;6.88;6.18;;;17.30;99.90;;;;;;5032247;28;20041;-81
2023/07/27 08:14:21;;;;;;;9.18;6.13;;;17.40;99.90;;;;;;5032279;28;20037;-81
2023/07/27 08:16:47;;;;;;;7.25;6.47;;;17.50;99.90;;;;;;5032105;28;20037;-81
2023/07/27 08:19:12;;;;;;;7.35;6.55;;;17.50;99.90;;;;;;5032634;28;20072;-81
2023/07/27 08:21:39;;;;;;;7.00;6.30;;;17.40;99.90;;;;;;5032247;28;20073;-81
2023/07/27 08:24:06;;;;;;;6.38;5.57;;;17.40;99.90;;;;;;5033618;28;20088;-81
2023/07/27 08:26:31;;;;;;;6.55;5.95;;;17.40;99.90;;;;;;5032144;28;20037;-81
2023/07/27 08:28:57;;;;;;;6.20;5.60;;;17.30;99.90;;;;;;5031960;28;20091;-81
2023/07/27 08:31:23;;;;;;;6.22;5.40;;;17.20;99.90;;;;;;5032993;28;20555;-81
2023/07/27 08:33:48;;;;;;;6.50;5.80;;;17.20;99.90;;;;;;5032862;28;20043;-81
2023/07/27 08:36:14;;;;;;;7.93;5.18;;;17.20;99.90;;;;;;5033140;28;20503;-81
2023/07/27 08:38:40;;;;;;;6.10;5.50;;;17.10;99.90;;;;;;5033286;28;20080;-81
2023/07/27 08:41:05;;;;;;;6.13;5.53;;;17.20;99.90;;;;;;5015397;28;20042;-81
2023/07/27 08:43:31;;;;;;;6.57;5.95;;;17.20;99.90;;;;;;5031629;28;20052;-81
2023/07/27 08:45:58;;;;;;;5.97;5.22;;;17.10;99.90;;;;;;5032745;28;20039;-81
2023/07/27 08:48:24;;;;;;;7.05;6.38;;;17.20;99.90;;;;;;5031046;28;20133;-81
2023/07/27 08:50:51;;;;;;;6.15;5.43;;;17.20;99.90;;;;;;5032901;28;20087;-81
2023/07/27 08:53:17;;;;;;;6.43;5.20;;;17.20;99.90;;;;;;5031491;28;20048;-81
2023/07/27 08:55:44;;;;;;;5.22;4.70;;;17.10;99.90;;;;;;5032523;28;20030;-81
2023/07/27 08:58:10;;;;;;;6.35;5.72;;;17.10;99.90;;;;;;5031578;28;20069;-81
2023/07/27 09:00:38;;;;;;;6.55;5.95;;;17.10;99.90;;;;;;5032410;28;20037;-81
2023/07/27 09:03:05;;;;;;;6.43;5.78;;;17.10;99.90;;;;;;5014364;28;20042;-81
2023/07/27 09:05:39;;;;;;;6.25;5.47;;;17.10;99.90;;;;;;5031204;28;20042;-81
2023/07/27 09:08:14;;;;;;;7.45;6.75;;;17.10;99.90;;;;;;5014684;28;20103;-81
2023/07/27 09:10:42;;;;;;;5.60;5.10;;;17.20;99.90;;;;;;5031109;28;20134;-81
2023/07/27 09:13:08;;;;;;;6.00;5.50;;;17.20;99.90;;;;;;5014531;28;20051;-81
2023/07/27 09:15:35;;;;;;;6.90;6.30;;;17.30;99.90;;;;;;5031095;28;20088;-81
2023/07/27 09:18:07;;;;;;;8.38;7.60;;;17.30;99.90;;;;;;5031775;28;20512;-81
2023/07/27 09:20:34;;;;;;;6.75;6.15;;;17.40;99.90;;;;;;5014494;28;20038;-81
2023/07/27 09:23:00;;;;;;;9.60;6.90;;;17.50;99.90;;;;;;5014585;28;20038;-81
2023/07/27 09:25:25;;;;;;;6.90;6.28;;;17.70;99.90;;;;;;5014426;28;20038;-81
2023/07/27 09:27:53;;;;;;;5.20;4.78;;;17.80;99.90;;;;;;5014390;28;20128;-81
2023/07/27 09:30:19;;;;;;;6.15;5.35;;;18.00;99.90;;;;;;5030783;28;20053;-81
2023/07/27 09:32:49;;;;;;;5.88;5.32;;;18.20;99.90;;;;;;5031769;28;20091;-81
2023/07/27 09:35:16;;;;;;;5.10;4.60;;;18.30;99.90;;;;;;5030726;28;20037;-81
2023/07/27 09:37:51;;;;;;;5.82;5.25;;;18.40;99.90;;;;;;5030698;28;20041;-82
2023/07/27 09:40:24;;;;;;;5.40;4.68;;;18.30;99.90;;;;;;5031747;28;20038;-81
2023/07/27 09:42:49;;;;;;;4.77;4.30;;;18.30;99.90;;;;;;5013666;28;20052;-81
2023/07/27 09:45:15;;;;;;;4.55;4.15;;;18.30;99.90;;;;;;5030822;28;20280;-81
2023/07/27 09:47:42;;;;;;;4.30;3.90;;;18.40;99.90;;;;;;5030101;28;20090;-82
2023/07/27 09:50:09;;;;;;;4.88;4.47;;;18.60;99.90;;;;;;5030738;28;20396;-82
2023/07/27 09:52:36;;;;;;;4.57;4.18;;;18.80;99.90;;;;;;5030472;28;20532;-82
2023/07/27 09:55:02;;;;;;;4.72;4.32;;;18.70;99.90;;;;;;5014161;28;20396;-82
2023/07/27 09:57:29;;;;;;;4.82;4.43;;;18.70;99.90;;;;;;5030296;28;20045;-82
2023/07/27 09:59:55;;;;;;;4.97;4.57;;;18.50;99.90;;;;;;5013325;28;20037;-82
2023/07/27 10:02:21;;;;;;;4.97;4.50;;;18.40;99.90;;;;;;5030299;28;20063;-82
2023/07/27 10:04:50;;;;;;;5.10;4.70;;;18.20;99.90;;;;;;5030358;28;20562;-82
2023/07/27 10:07:20;;;;;;;5.10;4.70;;;18.10;99.90;;;;;;5030206;28;20037;-82
2023/07/27 10:09:47;;;;;;;5.00;4.22;;;18.10;99.90;;;;;;5014032;28;20081;-82
2023/07/27 10:12:29;;;;;;;4.60;4.20;;;18.00;99.90;;;;;;5030136;28;20068;-82
2023/07/27 10:15:20;;;;;;;4.70;4.30;;;18.00;99.90;;;;;;5029960;28;20068;-82
2023/07/27 10:17:51;;;;;;;4.20;3.80;;;18.10;99.90;;;;;;5013567;28;20057;-82
2023/07/27 10:20:23;;;;;;;5.35;4.85;;;18.10;99.90;;;;;;5030064;28;20045;-82
2023/07/27 10:23:11;;;;;;;4.22;3.83;;;18.10;99.90;;;;;;5014027;28;20411;-82
2023/07/27 10:26:03;;;;;;;5.60;4.05;;;18.10;99.90;;;;;;5031412;28;20076;-82
2023/07/27 10:28:47;;;;;;;5.07;4.10;;;18.10;99.90;;;;;;5030358;28;20073;-82
2023/07/27 10:31:16;;;;;;;;;;;18.00;99.90;;;;;;5030249;28;20040;-82
2023/07/27 10:33:46;;;;;;;4.72;4.32;;;17.90;99.90;;;;;;5030131;28;19917;-82
2023/07/27 10:36:12;;;;;;;5.47;4.97;;;17.90;99.90;;;;;;5013782;28;20407;-82
2023/07/27 10:38:38;;;;;;;4.90;4.20;;;17.90;99.90;;;;;;5029986;28;20483;-82
2023/07/27 10:41:14;;;;;;;6.82;6.30;;;17.80;99.90;;;;;;5013539;28;20068;-82
2023/07/27 10:44:09;;;;;;;5.13;4.63;;;17.80;99.90;;;;;;5031135;28;20046;-82
2023/07/27 10:46:38;;;;;;;6.80;6.28;;;17.90;99.90;;;;;;5018002;28;20125;-82
2023/07/27 10:49:12;;;;;;;5.03;4.53;;;17.90;99.90;;;;;;5013664;28;20392;-82
2023/07/27 10:51:38;;;;;;;;;;;17.90;99.90;;;;;;5030497;28;20121;-82
2023/07/27 10:54:03;;;;;;;6.97;6.28;;;18.00;99.90;;;;;;5031584;28;19996;-82
2023/07/27 10:56:34;;;;;;;7.00;6.30;;;18.10;99.90;;;;;;5017243;28;20095;-82
2023/07/27 10:59:01;;;;;;;5.13;4.72;;;18.20;99.90;;;;;;5034553;28;20041;-82
2023/07/27 11:01:33;;;;;;;5.88;5.38;;;18.20;99.90;;;;;;5033769;28;20052;-82
2023/07/27 11:03:58;;;;;;;5.72;5.22;;;18.30;99.90;;;;;;5017026;28;20132;-82
2023/07/27 11:06:28;;;;;;;7.10;6.50;;;18.40;99.90;;;;;;5033762;28;20120;-82
2023/07/27 11:08:55;;;;;;;6.20;5.60;;;18.40;99.90;;;;;;5034927;28;20394;-82
2023/07/27 11:11:21;;;;;;;7.25;6.57;;;18.40;99.90;;;;;;5016955;28;20099;-82
2023/07/27 11:13:47;;;;;;;6.03;5.53;;;18.50;99.90;;;;;;5016404;28;20051;-82
2023/07/27 11:16:13;;;;;;;5.85;5.35;;;18.40;99.90;;;;;;5033409;28;20494;-82
2023/07/27 11:18:40;;;;;;;5.90;5.40;;;18.40;99.90;;;;;;5033055;28;20045;-82
2023/07/27 11:21:08;;;;;;;5.70;5.20;;;18.40;99.90;;;;;;5016731;28;20045;-82
2023/07/27 11:23:41;;;;;;;8.45;7.70;;;18.40;99.90;;;;;;5034584;28;20041;-82
2023/07/27 11:26:07;;;;;;;8.05;7.45;;;18.30;99.90;;;;;;5034904;28;20388;-82
2023/07/27 11:28:34;;;;;;;7.10;6.50;;;18.30;99.90;;;;;;5016066;28;20124;-82
2023/07/27 11:30:59;;;;;;;9.57;8.82;;;18.20;99.90;;;;;;5032939;28;20043;-82
2023/07/27 11:33:32;;;;;;;14.55;13.50;;;18.20;99.90;;;;;;5033097;28;20042;-82
2023/07/27 11:35:59;;;;;;;13.00;11.95;;;18.30;99.90;;;;;;5016400;28;20059;-81
2023/07/27 11:38:25;;;;;;;7.85;7.20;;;18.30;99.90;;;;;;5034115;28;20037;-81
2023/07/27 11:40:57;;;;;;;16.25;15.18;;;18.40;99.90;;;;;;5016743;28;20041;-81
2023/07/27 11:43:26;;;;;;;15.65;14.57;;;18.50;99.90;;;;;;5033834;28;20071;-82
2023/07/27 11:45:56;;;;;;;8.88;7.90;;;18.60;99.90;;;;;;5032897;28;20033;-82
2023/07/27 11:48:29;;;;;;;11.75;10.77;;;18.70;99.90;;;;;;5034052;28;20029;-82
2023/07/27 11:50:59;;;;;;;16.92;15.82;;;18.80;99.90;;;;;;5032884;28;20099;-82
2023/07/27 11:53:27;;;;;;;17.02;15.88;;;18.80;99.90;;;;;;5016547;28;20140;-82
2023/07/27 11:55:53;;;;;;;8.77;8.10;;;18.90;99.90;;;;;;5015641;28;20120;-82
2023/07/27 11:58:19;;;;;;;10.07;9.10;;;19.00;99.90;;;;;;5016488;28;20459;-82
2023/07/27 12:00:50;;;;;;;8.48;7.75;;;19.00;99.90;;;;;;5033960;28;20076;-82
2023/07/27 12:03:18;;;;;;;9.90;7.35;;;19.10;99.90;;;;;;5032566;28;20064;-82
2023/07/27 12:05:44;;;;;;;5.95;5.45;;;19.20;99.90;;;;;;5033332;28;20426;-82
2023/07/27 12:08:09;;;;;;;7.10;6.50;;;19.10;99.90;;;;;;5032694;28;20041;-82
2023/07/27 12:10:35;;;;;;;8.80;8.10;;;19.10;99.90;;;;;;5031882;28;20052;-82
2023/07/27 12:13:03;;;;;;;7.55;6.90;;;19.10;99.90;;;;;;5015758;28;20045;-82
2023/07/27 12:15:36;;;;;;;6.25;5.75;;;19.20;99.90;;;;;;5032157;28;20083;-82
2023/07/27 12:18:06;;;;;;;5.65;5.15;;;19.20;99.90;;;;;;5031900;28;20085;-82
2023/07/27 12:20:35;;;;;;;8.93;8.25;;;19.30;99.90;;;;;;5032040;28;20496;-82
2023/07/27 12:23:00;;;;;;;10.30;9.57;;;19.40;99.90;;;;;;5033656;28;20042;-82
2023/07/27 12:25:27;;;;;;;7.80;7.25;;;19.40;99.90;;;;;;5031811;28;20049;-82
2023/07/27 12:27:53;;;;;;;8.27;7.53;;;19.50;99.90;;;;;;5033327;28;20047;-82
2023/07/27 12:30:19;;;;;;;10.23;9.52;;;19.60;99.90;;;;;;5015352;28;20072;-82
2023/07/27 12:32:49;;;;;;;13.30;12.43;;;19.80;99.90;;;;;;5032160;28;20599;-82
2023/07/27 12:35:15;;;;;;;4.85;4.35;;;20.00;99.90;;;;;;5031755;28;20045;-82